sensor_id;sensor_type;location;lat;lon;timestamp;pressure;altitude;pressure_sealevel;temperature;humidity
4410;BME280;2218;51.408;7.208;2023-03-24T00:00:47;98314.03;;;19.58;46.47
4410;BME280;2218;51.408;7.208;2023-03-24T00:03:14;98313.19;;;19.58;46.61
4410;BME280;2218;51.408;7.208;2023-03-24T00:05:42;98308.91;;;19.57;46.76
4410;BME280;2218;51.408;7.208;2023-03-24T00:08:09;98316.81;;;19.57;46.72
4410;BME280;2218;51.408;7.208;2023-03-24T00:10:38;98301.00;;;19.57;46.64
4410;BME280;2218;51.408;7.208;2023-03-24T00:13:07;98295.72;;;19.57;46.71
4410;BME280;2218;51.408;7.208;2023-03-24T00:15:34;98295.72;;;19.57;46.78
4410;BME280;2218;51.408;7.208;2023-03-24T00:18:02;98299.34;;;19.56;46.86
4410;BME280;2218;51.408;7.208;2023-03-24T00:20:29;98290.63;;;19.55;47.08
4410;BME280;2218;51.408;7.208;2023-03-24T00:22:57;98294.06;;;19.56;47.10
4410;BME280;2218;51.408;7.208;2023-03-24T00:25:28;98283.53;;;19.56;46.67
4410;BME280;2218;51.408;7.208;2023-03-24T00:28:00;98280.06;;;19.55;46.61
4410;BME280;2218;51.408;7.208;2023-03-24T00:30:28;98279.25;;;19.55;46.92
4410;BME280;2218;51.408;7.208;2023-03-24T00:32:55;98268.69;;;19.55;47.10
4410;BME280;2218;51.408;7.208;2023-03-24T00:35:23;98268.69;;;19.55;46.91
4410;BME280;2218;51.408;7.208;2023-03-24T00:37:50;98262.72;;;19.53;47.00
4410;BME280;2218;51.408;7.208;2023-03-24T00:40:19;98270.50;;;19.54;47.14
4410;BME280;2218;51.408;7.208;2023-03-24T00:42:48;98255.81;;;19.52;47.16
4410;BME280;2218;51.408;7.208;2023-03-24T00:45:20;98254.00;;;19.52;47.30
4410;BME280;2218;51.408;7.208;2023-03-24T00:47:48;98252.19;;;19.53;47.24
4410;BME280;2218;51.408;7.208;2023-03-24T00:50:20;98240.00;;;19.52;47.09
4410;BME280;2218;51.408;7.208;2023-03-24T00:52:51;98240.00;;;19.52;47.13
4410;BME280;2218;51.408;7.208;2023-03-24T00:55:19;98229.47;;;19.52;47.27
4410;BME280;2218;51.408;7.208;2023-03-24T00:57:47;98225.16;;;19.51;47.26
4410;BME280;2218;51.408;7.208;2023-03-24T01:00:19;98230.44;;;19.51;47.04
4410;BME280;2218;51.408;7.208;2023-03-24T01:02:49;98219.91;;;19.51;47.64
4410;BME280;2218;51.408;7.208;2023-03-24T01:05:19;98218.25;;;19.50;47.62
4410;BME280;2218;51.408;7.208;2023-03-24T01:07:47;98212.97;;;19.50;47.31
4410;BME280;2218;51.408;7.208;2023-03-24T01:10:20;98201.47;;;19.51;47.08
4410;BME280;2218;51.408;7.208;2023-03-24T01:12:52;98205.91;;;19.50;47.56
4410;BME280;2218;51.408;7.208;2023-03-24T01:15:26;98200.63;;;19.50;47.62
4410;BME280;2218;51.408;7.208;2023-03-24T01:17:54;98199.81;;;19.50;47.51
4410;BME280;2218;51.408;7.208;2023-03-24T01:20:23;98202.56;;;19.48;47.45
4410;BME280;2218;51.408;7.208;2023-03-24T01:22:51;98201.72;;;19.48;48.14
4410;BME280;2218;51.408;7.208;2023-03-24T01:25:21;98213.94;;;19.49;47.64
4410;BME280;2218;51.408;7.208;2023-03-24T01:27:50;98198.13;;;19.49;47.56
4410;BME280;2218;51.408;7.208;2023-03-24T01:30:22;98194.66;;;19.48;47.69
4410;BME280;2218;51.408;7.208;2023-03-24T01:32:50;98197.28;;;19.48;47.79
4410;BME280;2218;51.408;7.208;2023-03-24T01:35:19;98201.72;;;19.48;47.61
4410;BME280;2218;51.408;7.208;2023-03-24T01:37:47;98204.38;;;19.48;47.82
4410;BME280;2218;51.408;7.208;2023-03-24T01:40:18;98195.63;;;19.47;47.85
4410;BME280;2218;51.408;7.208;2023-03-24T01:42:46;98189.53;;;19.47;47.91
4410;BME280;2218;51.408;7.208;2023-03-24T01:45:51;98190.38;;;19.47;47.81
4410;BME280;2218;51.408;7.208;2023-03-24T01:48:26;98186.06;;;19.46;47.87
4410;BME280;2218;51.408;7.208;2023-03-24T01:50:59;98174.72;;;19.46;47.76
4410;BME280;2218;51.408;7.208;2023-03-24T01:53:29;98157.94;;;19.47;47.95
4410;BME280;2218;51.408;7.208;2023-03-24T01:55:59;98154.63;;;19.45;48.01
4410;BME280;2218;51.408;7.208;2023-03-24T01:58:36;98158.91;;;19.46;47.96
4410;BME280;2218;51.408;7.208;2023-03-24T02:01:26;98138.81;;;19.45;48.13
4410;BME280;2218;51.408;7.208;2023-03-24T02:04:05;98132.56;;;19.46;47.84
4410;BME280;2218;51.408;7.208;2023-03-24T02:06:39;98129.09;;;19.45;48.19
4410;BME280;2218;51.408;7.208;2023-03-24T02:09:11;98116.88;;;19.44;48.18
4410;BME280;2218;51.408;7.208;2023-03-24T02:11:39;98116.06;;;19.44;48.38
4410;BME280;2218;51.408;7.208;2023-03-24T02:14:08;98110.78;;;19.44;48.29
4410;BME280;2218;51.408;7.208;2023-03-24T02:17:01;98112.47;;;19.45;47.99
4410;BME280;2218;51.408;7.208;2023-03-24T02:23:33;98086.41;;;19.42;48.02
4410;BME280;2218;51.408;7.208;2023-03-24T02:26:53;98080.97;;;19.43;48.44
4410;BME280;2218;51.408;7.208;2023-03-24T02:33:22;98075.88;;;19.42;48.43
4410;BME280;2218;51.408;7.208;2023-03-24T02:39:36;98057.44;;;19.42;48.37
4410;BME280;2218;51.408;7.208;2023-03-24T02:42:17;98043.44;;;19.41;48.37
4410;BME280;2218;51.408;7.208;2023-03-24T02:45:01;98043.44;;;19.41;48.71
4410;BME280;2218;51.408;7.208;2023-03-24T02:47:42;98052.31;;;19.40;48.61
4410;BME280;2218;51.408;7.208;2023-03-24T02:50:22;98042.59;;;19.41;48.38
4410;BME280;2218;51.408;7.208;2023-03-24T02:53:00;98047.88;;;19.41;48.49
4410;BME280;2218;51.408;7.208;2023-03-24T02:55:45;98033.88;;;19.40;48.43
4410;BME280;2218;51.408;7.208;2023-03-24T02:58:22;98029.44;;;19.41;48.53
4410;BME280;2218;51.408;7.208;2023-03-24T03:01:04;98027.78;;;19.40;48.95
4410;BME280;2218;51.408;7.208;2023-03-24T03:03:54;98030.41;;;19.40;48.76
4410;BME280;2218;51.408;7.208;2023-03-24T03:06:28;98018.19;;;19.38;48.70
4410;BME280;2218;51.408;7.208;2023-03-24T03:09:01;98032.19;;;19.39;48.78
4410;BME280;2218;51.408;7.208;2023-03-24T03:11:34;98034.00;;;19.38;48.65
4410;BME280;2218;51.408;7.208;2023-03-24T03:14:05;98030.41;;;19.40;48.68
4410;BME280;2218;51.408;7.208;2023-03-24T03:16:40;98012.94;;;19.38;48.69
4410;BME280;2218;51.408;7.208;2023-03-24T03:19:16;98018.19;;;19.38;48.91
4410;BME280;2218;51.408;7.208;2023-03-24T03:21:48;98013.75;;;19.39;48.96
4410;BME280;2218;51.408;7.208;2023-03-24T03:24:20;98013.75;;;19.39;48.76
4410;BME280;2218;51.408;7.208;2023-03-24T03:26:57;98008.50;;;19.39;48.93
4410;BME280;2218;51.408;7.208;2023-03-24T03:29:33;98012.94;;;19.38;48.86
4410;BME280;2218;51.408;7.208;2023-03-24T03:32:06;98018.19;;;19.38;48.67
4410;BME280;2218;51.408;7.208;2023-03-24T03:34:42;98009.34;;;19.40;48.94
4410;BME280;2218;51.408;7.208;2023-03-24T03:37:22;98019.88;;;19.40;48.95
4410;BME280;2218;51.408;7.208;2023-03-24T03:39:56;98013.63;;;19.41;48.97
4410;BME280;2218;51.408;7.208;2023-03-24T03:42:25;98018.91;;;19.41;48.73
4410;BME280;2218;51.408;7.208;2023-03-24T03:44:53;98017.09;;;19.41;48.80
4410;BME280;2218;51.408;7.208;2023-03-24T03:47:21;98011.81;;;19.41;48.87
4410;BME280;2218;51.408;7.208;2023-03-24T03:49:49;98012.66;;;19.42;48.93
4410;BME280;2218;51.408;7.208;2023-03-24T03:52:17;98010.00;;;19.42;49.02
4410;BME280;2218;51.408;7.208;2023-03-24T03:54:47;98012.66;;;19.42;48.91
4410;BME280;2218;51.408;7.208;2023-03-24T03:57:17;98019.56;;;19.43;48.83
4410;BME280;2218;51.408;7.208;2023-03-24T04:00:11;98030.09;;;19.43;48.94
4410;BME280;2218;51.408;7.208;2023-03-24T04:03:01;98024.84;;;19.43;49.06
4410;BME280;2218;51.408;7.208;2023-03-24T04:05:34;98025.66;;;19.43;49.10
4410;BME280;2218;51.408;7.208;2023-03-24T04:08:20;98022.19;;;19.43;49.11
4410;BME280;2218;51.408;7.208;2023-03-24T04:19:02;98040.47;;;19.44;49.02
4410;BME280;2218;51.408;7.208;2023-03-24T04:21:52;98037.03;;;19.44;49.22
4410;BME280;2218;51.408;7.208;2023-03-24T04:24:38;98030.94;;;19.43;48.96
4410;BME280;2218;51.408;7.208;2023-03-24T04:27:18;98048.38;;;19.44;49.14
4410;BME280;2218;51.408;7.208;2023-03-24T04:30:02;98043.97;;;19.45;49.14
4410;BME280;2218;51.408;7.208;2023-03-24T04:32:42;98057.97;;;19.45;48.92
4410;BME280;2218;51.408;7.208;2023-03-24T04:35:20;98069.47;;;19.44;49.29
4410;BME280;2218;51.408;7.208;2023-03-24T04:38:19;98074.72;;;19.44;49.11
4410;BME280;2218;51.408;7.208;2023-03-24T04:40:59;98099.28;;;19.45;49.13
4410;BME280;2218;51.408;7.208;2023-03-24T04:43:30;98070.31;;;19.45;49.41
4410;BME280;2218;51.408;7.208;2023-03-24T04:46:04;98071.28;;;19.44;49.26
4410;BME280;2218;51.408;7.208;2023-03-24T04:48:39;98083.50;;;19.45;49.18
4410;BME280;2218;51.408;7.208;2023-03-24T04:51:17;98069.47;;;19.44;49.21
4410;BME280;2218;51.408;7.208;2023-03-24T04:53:54;98072.09;;;19.44;49.27
4410;BME280;2218;51.408;7.208;2023-03-24T04:56:38;98086.13;;;19.45;49.50
4410;BME280;2218;51.408;7.208;2023-03-24T04:59:16;98090.53;;;19.44;49.53
4410;BME280;2218;51.408;7.208;2023-03-24T05:01:45;98111.50;;;19.46;49.58
4410;BME280;2218;51.408;7.208;2023-03-24T05:04:34;98123.00;;;19.45;49.45
4410;BME280;2218;51.408;7.208;2023-03-24T05:07:12;98131.72;;;19.45;49.49
4410;BME280;2218;51.408;7.208;2023-03-24T05:09:43;98124.66;;;19.46;49.74
4410;BME280;2218;51.408;7.208;2023-03-24T05:12:10;98122.03;;;19.46;49.96
4410;BME280;2218;51.408;7.208;2023-03-24T05:15:11;98134.88;;;19.49;49.85
4410;BME280;2218;51.408;7.208;2023-03-24T05:17:39;98139.88;;;19.52;50.02
4410;BME280;2218;51.408;7.208;2023-03-24T05:20:08;98146.81;;;19.53;49.97
4410;BME280;2218;51.408;7.208;2023-03-24T05:22:38;98144.88;;;19.55;49.73
4410;BME280;2218;51.408;7.208;2023-03-24T05:25:06;98153.44;;;19.57;50.04
4410;BME280;2218;51.408;7.208;2023-03-24T05:27:35;98170.91;;;19.58;49.88
4410;BME280;2218;51.408;7.208;2023-03-24T05:30:15;98170.50;;;19.62;50.00
4410;BME280;2218;51.408;7.208;2023-03-24T05:32:45;98181.75;;;19.65;49.65
4410;BME280;2218;51.408;7.208;2023-03-24T05:35:12;98183.09;;;19.69;49.44
4410;BME280;2218;51.408;7.208;2023-03-24T05:37:42;98187.41;;;19.70;49.81
4410;BME280;2218;51.408;7.208;2023-03-24T05:40:10;98195.16;;;19.71;49.46
4410;BME280;2218;51.408;7.208;2023-03-24T05:42:50;98207.19;;;19.74;49.48
4410;BME280;2218;51.408;7.208;2023-03-24T05:45:19;98216.91;;;19.73;49.52
4410;BME280;2218;51.408;7.208;2023-03-24T05:47:46;98229.16;;;19.74;49.49
4410;BME280;2218;51.408;7.208;2023-03-24T05:50:15;98241.19;;;19.77;49.52
4410;BME280;2218;51.408;7.208;2023-03-24T05:52:44;98249.91;;;19.77;49.62
4410;BME280;2218;51.408;7.208;2023-03-24T05:55:31;98258.81;;;19.76;49.69
4410;BME280;2218;51.408;7.208;2023-03-24T05:58:07;98254.38;;;19.77;49.61
4410;BME280;2218;51.408;7.208;2023-03-24T06:00:44;98265.75;;;19.77;49.62
4410;BME280;2218;51.408;7.208;2023-03-24T06:03:18;98260.47;;;19.77;49.55
4410;BME280;2218;51.408;7.208;2023-03-24T06:05:54;98270.03;;;19.78;49.53
4410;BME280;2218;51.408;7.208;2023-03-24T06:08:22;98285.00;;;19.78;49.57
4410;BME280;2218;51.408;7.208;2023-03-24T06:10:49;98282.25;;;19.79;49.43
4410;BME280;2218;51.408;7.208;2023-03-24T06:13:18;98289.84;;;19.82;49.34
4410;BME280;2218;51.408;7.208;2023-03-24T06:15:46;98292.88;;;19.87;49.47
4410;BME280;2218;51.408;7.208;2023-03-24T06:18:36;98304.13;;;19.90;49.43
4410;BME280;2218;51.408;7.208;2023-03-24T06:21:13;98312.00;;;19.99;49.00
4410;BME280;2218;51.408;7.208;2023-03-24T06:23:44;98309.81;;;19.95;49.11
4410;BME280;2218;51.408;7.208;2023-03-24T06:26:15;98316.34;;;19.91;49.11
4410;BME280;2218;51.408;7.208;2023-03-24T06:28:57;98313.56;;;19.92;49.15
4410;BME280;2218;51.408;7.208;2023-03-24T06:31:27;98312.06;;;19.90;48.66
4410;BME280;2218;51.408;7.208;2023-03-24T06:33:55;98305.09;;;19.88;48.90
4410;BME280;2218;51.408;7.208;2023-03-24T06:36:21;98307.88;;;19.87;48.62
4410;BME280;2218;51.408;7.208;2023-03-24T06:38:51;98311.50;;;19.86;48.65
4410;BME280;2218;51.408;7.208;2023-03-24T06:41:20;98327.31;;;19.86;48.78
4410;BME280;2218;51.408;7.208;2023-03-24T06:43:53;98337.03;;;19.85;48.65
4410;BME280;2218;51.408;7.208;2023-03-24T06:46:20;98314.13;;;19.86;48.65
4410;BME280;2218;51.408;7.208;2023-03-24T06:48:47;98324.69;;;19.86;48.58
4410;BME280;2218;51.408;7.208;2023-03-24T06:51:14;98342.44;;;19.84;48.46
4410;BME280;2218;51.408;7.208;2023-03-24T06:53:41;98348.41;;;19.86;48.44
4410;BME280;2218;51.408;7.208;2023-03-24T06:56:12;98348.41;;;19.86;48.21
4410;BME280;2218;51.408;7.208;2023-03-24T06:58:45;98356.31;;;19.86;48.20
4410;BME280;2218;51.408;7.208;2023-03-24T07:01:16;98355.50;;;19.85;48.45
4410;BME280;2218;51.408;7.208;2023-03-24T07:03:53;98357.16;;;19.86;48.17
4410;BME280;2218;51.408;7.208;2023-03-24T07:06:40;98358.78;;;19.87;48.35
4410;BME280;2218;51.408;7.208;2023-03-24T07:09:12;98352.53;;;19.88;48.01
4410;BME280;2218;51.408;7.208;2023-03-24T07:11:41;98356.56;;;19.93;47.93
4410;BME280;2218;51.408;7.208;2023-03-24T07:14:08;98350.03;;;19.97;47.85
4410;BME280;2218;51.408;7.208;2023-03-24T07:16:35;98344.47;;;20.00;47.79
4410;BME280;2218;51.408;7.208;2023-03-24T07:19:27;98363.63;;;20.02;47.83
4410;BME280;2218;51.408;7.208;2023-03-24T07:22:13;98371.38;;;20.03;48.00
4410;BME280;2218;51.408;7.208;2023-03-24T07:24:58;98366.81;;;20.05;47.83
4410;BME280;2218;51.408;7.208;2023-03-24T07:27:47;98375.53;;;20.06;48.05
4410;BME280;2218;51.408;7.208;2023-03-24T07:30:14;98383.47;;;20.06;47.96
4410;BME280;2218;51.408;7.208;2023-03-24T07:32:43;98379.69;;;20.08;47.86
4410;BME280;2218;51.408;7.208;2023-03-24T07:35:11;98387.59;;;20.08;47.98
4410;BME280;2218;51.408;7.208;2023-03-24T07:37:38;98387.47;;;20.10;47.94
4410;BME280;2218;51.408;7.208;2023-03-24T07:40:09;98376.78;;;20.11;47.89
4410;BME280;2218;51.408;7.208;2023-03-24T07:42:37;98379.41;;;20.11;47.78
4410;BME280;2218;51.408;7.208;2023-03-24T07:45:25;98377.31;;;20.15;47.72
4410;BME280;2218;51.408;7.208;2023-03-24T07:47:53;98383.28;;;20.17;47.64
4410;BME280;2218;51.408;7.208;2023-03-24T07:50:22;98384.94;;;20.18;47.69
4410;BME280;2218;51.408;7.208;2023-03-24T07:52:49;98384.81;;;20.20;47.60
4410;BME280;2218;51.408;7.208;2023-03-24T07:55:19;98389.25;;;20.19;47.51
4410;BME280;2218;51.408;7.208;2023-03-24T07:57:53;98398.00;;;20.20;47.76
4410;BME280;2218;51.408;7.208;2023-03-24T08:00:24;98400.63;;;20.20;47.62
4410;BME280;2218;51.408;7.208;2023-03-24T08:03:03;98404.09;;;20.20;47.13
4410;BME280;2218;51.408;7.208;2023-03-24T08:06:01;98415.47;;;20.21;47.18
4410;BME280;2218;51.408;7.208;2023-03-24T08:08:31;98412.84;;;20.21;47.18
4410;BME280;2218;51.408;7.208;2023-03-24T08:10:58;98419.94;;;20.20;47.29
4410;BME280;2218;51.408;7.208;2023-03-24T08:13:25;98404.94;;;20.21;47.34
4410;BME280;2218;51.408;7.208;2023-03-24T08:15:53;98411.03;;;20.21;47.21
4410;BME280;2218;51.408;7.208;2023-03-24T08:18:22;98415.63;;;20.19;47.44
4410;BME280;2218;51.408;7.208;2023-03-24T08:20:55;98419.22;;;20.18;46.97
4410;BME280;2218;51.408;7.208;2023-03-24T08:23:24;98427.13;;;20.18;47.31
4410;BME280;2218;51.408;7.208;2023-03-24T08:25:52;98415.63;;;20.19;46.95
4410;BME280;2218;51.408;7.208;2023-03-24T08:28:19;98425.31;;;20.19;47.03
4410;BME280;2218;51.408;7.208;2023-03-24T08:30:46;98421.84;;;20.18;47.02
4410;BME280;2218;51.408;7.208;2023-03-24T08:33:15;98422.69;;;20.19;46.89
4410;BME280;2218;51.408;7.208;2023-03-24T08:35:42;98427.00;;;20.20;47.14
4410;BME280;2218;51.408;7.208;2023-03-24T08:38:11;98419.94;;;20.20;46.82
4410;BME280;2218;51.408;7.208;2023-03-24T08:40:41;98409.38;;;20.20;46.92
4410;BME280;2218;51.408;7.208;2023-03-24T08:43:15;98415.47;;;20.21;46.51
4410;BME280;2218;51.408;7.208;2023-03-24T08:45:44;98420.59;;;20.22;46.76
4410;BME280;2218;51.408;7.208;2023-03-24T08:48:11;98419.63;;;20.23;46.55
4410;BME280;2218;51.408;7.208;2023-03-24T08:50:40;98417.97;;;20.22;46.47
4410;BME280;2218;51.408;7.208;2023-03-24T08:53:09;98423.53;;;20.19;46.33
4410;BME280;2218;51.408;7.208;2023-03-24T08:55:37;98426.84;;;20.21;46.57
4410;BME280;2218;51.408;7.208;2023-03-24T08:58:06;98434.78;;;20.21;46.50
4410;BME280;2218;51.408;7.208;2023-03-24T09:00:34;98428.53;;;20.22;46.75
4410;BME280;2218;51.408;7.208;2023-03-24T09:03:01;98435.44;;;20.23;46.71
4410;BME280;2218;51.408;7.208;2023-03-24T09:05:28;98425.06;;;20.22;46.66
4410;BME280;2218;51.408;7.208;2023-03-24T09:07:56;98432.13;;;20.21;46.71
4410;BME280;2218;51.408;7.208;2023-03-24T09:10:25;98435.44;;;20.23;46.52
4410;BME280;2218;51.408;7.208;2023-03-24T09:12:52;98435.44;;;20.23;46.57
4410;BME280;2218;51.408;7.208;2023-03-24T09:15:19;98439.78;;;20.24;46.68
4410;BME280;2218;51.408;7.208;2023-03-24T09:17:46;98434.50;;;20.24;46.59
4410;BME280;2218;51.408;7.208;2023-03-24T09:20:14;98438.91;;;20.24;46.68
4410;BME280;2218;51.408;7.208;2023-03-24T09:22:43;98441.56;;;20.24;46.52
4410;BME280;2218;51.408;7.208;2023-03-24T09:25:14;98445.06;;;20.24;46.46
4410;BME280;2218;51.408;7.208;2023-03-24T09:27:42;98443.38;;;20.23;46.40
4410;BME280;2218;51.408;7.208;2023-03-24T09:30:13;98455.59;;;20.24;46.29
4410;BME280;2218;51.408;7.208;2023-03-24T09:32:40;98460.72;;;20.26;46.23
4410;BME280;2218;51.408;7.208;2023-03-24T09:35:08;98459.91;;;20.25;46.43
4410;BME280;2218;51.408;7.208;2023-03-24T09:37:37;98449.34;;;20.25;46.20
4410;BME280;2218;51.408;7.208;2023-03-24T09:40:06;98454.63;;;20.25;46.41
4410;BME280;2218;51.408;7.208;2023-03-24T09:42:39;98459.91;;;20.25;46.43
4410;BME280;2218;51.408;7.208;2023-03-24T09:45:14;98461.84;;;20.23;45.82
4410;BME280;2218;51.408;7.208;2023-03-24T09:47:47;98469.75;;;20.23;46.32
4410;BME280;2218;51.408;7.208;2023-03-24T09:50:23;98461.84;;;20.23;46.37
4410;BME280;2218;51.408;7.208;2023-03-24T09:52:55;98456.56;;;20.23;46.45
4410;BME280;2218;51.408;7.208;2023-03-24T09:55:26;98462.66;;;20.24;46.37
4410;BME280;2218;51.408;7.208;2023-03-24T09:58:02;98456.56;;;20.23;46.38
4410;BME280;2218;51.408;7.208;2023-03-24T10:00:35;98460.16;;;20.22;46.50
4410;BME280;2218;51.408;7.208;2023-03-24T10:03:16;98463.63;;;20.23;46.56
4410;BME280;2218;51.408;7.208;2023-03-24T10:05:52;98467.09;;;20.23;46.55
4410;BME280;2218;51.408;7.208;2023-03-24T10:08:27;98479.34;;;20.24;46.71
4410;BME280;2218;51.408;7.208;2023-03-24T10:11:02;98478.47;;;20.24;46.59
4410;BME280;2218;51.408;7.208;2023-03-24T10:13:51;98480.28;;;20.23;46.52
4410;BME280;2218;51.408;7.208;2023-03-24T10:16:31;98489.03;;;20.24;46.51
4410;BME280;2218;51.408;7.208;2023-03-24T10:19:11;98492.53;;;20.24;46.51
4410;BME280;2218;51.408;7.208;2023-03-24T10:21:55;98497.09;;;20.22;46.42
4410;BME280;2218;51.408;7.208;2023-03-24T10:24:31;98499.75;;;20.22;46.49
4410;BME280;2218;51.408;7.208;2023-03-24T10:27:12;98497.09;;;20.22;46.54
4410;BME280;2218;51.408;7.208;2023-03-24T10:29:42;98496.28;;;20.22;46.29
4410;BME280;2218;51.408;7.208;2023-03-24T10:32:17;98503.34;;;20.21;46.53
4410;BME280;2218;51.408;7.208;2023-03-24T10:34:53;98503.34;;;20.21;46.48
4410;BME280;2218;51.408;7.208;2023-03-24T10:37:22;98506.66;;;20.23;46.05
4410;BME280;2218;51.408;7.208;2023-03-24T10:39:50;98504.03;;;20.23;45.97
4410;BME280;2218;51.408;7.208;2023-03-24T10:42:21;98507.38;;;20.25;45.78
4410;BME280;2218;51.408;7.208;2023-03-24T10:44:52;98508.38;;;20.24;45.98
4410;BME280;2218;51.408;7.208;2023-03-24T10:47:25;98512.66;;;20.25;45.71
4410;BME280;2218;51.408;7.208;2023-03-24T10:49:56;98509.31;;;20.23;45.85
4410;BME280;2218;51.408;7.208;2023-03-24T10:52:24;98518.91;;;20.24;45.91
4410;BME280;2218;51.408;7.208;2023-03-24T10:54:56;98517.09;;;20.25;45.92
4410;BME280;2218;51.408;7.208;2023-03-24T10:57:26;98507.38;;;20.25;45.94
4410;BME280;2218;51.408;7.208;2023-03-24T10:59:57;98517.09;;;20.25;45.98
4410;BME280;2218;51.408;7.208;2023-03-24T11:02:29;98516.28;;;20.24;46.07
4410;BME280;2218;51.408;7.208;2023-03-24T11:04:59;98522.50;;;20.23;45.96
4410;BME280;2218;51.408;7.208;2023-03-24T11:07:31;98525.13;;;20.23;45.79
4410;BME280;2218;51.408;7.208;2023-03-24T11:10:04;98521.69;;;20.23;45.63
4410;BME280;2218;51.408;7.208;2023-03-24T11:12:34;98518.22;;;20.22;45.65
4410;BME280;2218;51.408;7.208;2023-03-24T11:15:16;98515.56;;;20.22;45.79
4410;BME280;2218;51.408;7.208;2023-03-24T11:17:44;98526.94;;;20.23;45.79
4410;BME280;2218;51.408;7.208;2023-03-24T11:20:17;98525.13;;;20.23;45.64
4410;BME280;2218;51.408;7.208;2023-03-24T11:22:56;98531.41;;;20.22;45.61
4410;BME280;2218;51.408;7.208;2023-03-24T11:25:26;98530.41;;;20.23;45.87
4410;BME280;2218;51.408;7.208;2023-03-24T11:27:59;98519.88;;;20.23;45.60
4410;BME280;2218;51.408;7.208;2023-03-24T11:30:34;98525.13;;;20.23;45.73
4410;BME280;2218;51.408;7.208;2023-03-24T11:33:02;98526.13;;;20.22;45.57
4410;BME280;2218;51.408;7.208;2023-03-24T11:35:30;98526.94;;;20.23;45.77
4410;BME280;2218;51.408;7.208;2023-03-24T11:38:05;98521.81;;;20.21;45.78
4410;BME280;2218;51.408;7.208;2023-03-24T11:40:32;98522.50;;;20.23;45.73
4410;BME280;2218;51.408;7.208;2023-03-24T11:43:00;98528.59;;;20.24;45.81
4410;BME280;2218;51.408;7.208;2023-03-24T11:45:39;98534.75;;;20.24;45.87
4410;BME280;2218;51.408;7.208;2023-03-24T11:48:21;98531.13;;;20.25;45.71
4410;BME280;2218;51.408;7.208;2023-03-24T11:50:54;98532.09;;;20.24;45.72
4410;BME280;2218;51.408;7.208;2023-03-24T11:53:26;98526.84;;;20.24;45.81
4410;BME280;2218;51.408;7.208;2023-03-24T11:56:02;98532.09;;;20.24;45.62
4410;BME280;2218;51.408;7.208;2023-03-24T11:58:40;98542.66;;;20.24;45.63
4410;BME280;2218;51.408;7.208;2023-03-24T12:01:21;98543.50;;;20.25;45.62
4410;BME280;2218;51.408;7.208;2023-03-24T12:04:06;98548.75;;;20.25;45.62
4410;BME280;2218;51.408;7.208;2023-03-24T12:06:55;98535.69;;;20.23;45.66
4410;BME280;2218;51.408;7.208;2023-03-24T12:09:38;98537.38;;;20.24;45.63
4410;BME280;2218;51.408;7.208;2023-03-24T12:12:22;98525.84;;;20.25;45.51
4410;BME280;2218;51.408;7.208;2023-03-24T12:15:16;98521.56;;;20.24;45.57
4410;BME280;2218;51.408;7.208;2023-03-24T12:17:54;98537.38;;;20.24;45.52
4410;BME280;2218;51.408;7.208;2023-03-24T12:20:29;98535.41;;;20.26;45.53
4410;BME280;2218;51.408;7.208;2023-03-24T12:23:03;98524.88;;;20.26;45.41
4410;BME280;2218;51.408;7.208;2023-03-24T12:26:08;98524.88;;;20.26;45.14
4410;BME280;2218;51.408;7.208;2023-03-24T12:28:55;98520.41;;;20.27;45.40
4410;BME280;2218;51.408;7.208;2023-03-24T12:31:52;98511.81;;;20.25;45.63
4410;BME280;2218;51.408;7.208;2023-03-24T12:34:45;98514.31;;;20.26;45.41
4410;BME280;2218;51.408;7.208;2023-03-24T12:37:28;98512.66;;;20.25;45.39
4410;BME280;2218;51.408;7.208;2023-03-24T12:40:34;98524.88;;;20.26;45.37
4410;BME280;2218;51.408;7.208;2023-03-24T12:43:17;98511.53;;;20.28;45.35
4410;BME280;2218;51.408;7.208;2023-03-24T12:45:49;98507.09;;;20.28;45.36
4410;BME280;2218;51.408;7.208;2023-03-24T12:48:37;98500.16;;;20.27;45.39
4410;BME280;2218;51.408;7.208;2023-03-24T12:51:21;98503.75;;;20.26;45.14
4410;BME280;2218;51.408;7.208;2023-03-24T12:54:07;98492.38;;;20.26;45.22
4410;BME280;2218;51.408;7.208;2023-03-24T12:56:45;98485.44;;;20.25;45.16
4410;BME280;2218;51.408;7.208;2023-03-24T12:59:21;98495.19;;;20.24;45.16
4410;BME280;2218;51.408;7.208;2023-03-24T13:02:00;98495.19;;;20.24;45.27
4410;BME280;2218;51.408;7.208;2023-03-24T13:04:32;98487.25;;;20.24;45.28
4410;BME280;2218;51.408;7.208;2023-03-24T13:07:08;98491.56;;;20.25;45.16
4410;BME280;2218;51.408;7.208;2023-03-24T13:09:46;98489.03;;;20.24;45.10
4410;BME280;2218;51.408;7.208;2023-03-24T13:12:22;98488.91;;;20.25;45.18
4410;BME280;2218;51.408;7.208;2023-03-24T13:15:00;98491.56;;;20.25;45.08
4410;BME280;2218;51.408;7.208;2023-03-24T13:17:33;98487.25;;;20.24;45.11
4410;BME280;2218;51.408;7.208;2023-03-24T13:20:06;98495.19;;;20.24;45.02
4410;BME280;2218;51.408;7.208;2023-03-24T13:22:40;98490.84;;;20.23;45.15
4410;BME280;2218;51.408;7.208;2023-03-24T13:25:24;98499.75;;;20.22;45.33
4410;BME280;2218;51.408;7.208;2023-03-24T13:27:59;98503.22;;;20.23;45.12
4410;BME280;2218;51.408;7.208;2023-03-24T13:30:34;98520.84;;;20.22;45.15
4410;BME280;2218;51.408;7.208;2023-03-24T13:33:10;98507.66;;;20.22;45.20
4410;BME280;2218;51.408;7.208;2023-03-24T13:36:03;98490.16;;;20.21;45.06
4410;BME280;2218;51.408;7.208;2023-03-24T13:38:40;98498.75;;;20.23;45.00
4410;BME280;2218;51.408;7.208;2023-03-24T13:41:16;98497.09;;;20.22;45.28
4410;BME280;2218;51.408;7.208;2023-03-24T13:43:48;98482.09;;;20.23;45.02
4410;BME280;2218;51.408;7.208;2023-03-24T13:46:16;98480.28;;;20.23;44.99
4410;BME280;2218;51.408;7.208;2023-03-24T13:48:49;98484.63;;;20.24;45.00
4410;BME280;2218;51.408;7.208;2023-03-24T13:51:23;98476.72;;;20.24;45.10
4410;BME280;2218;51.408;7.208;2023-03-24T13:53:56;98458.25;;;20.24;44.82
4410;BME280;2218;51.408;7.208;2023-03-24T13:56:30;98467.66;;;20.27;44.74
4410;BME280;2218;51.408;7.208;2023-03-24T13:59:26;98463.22;;;20.27;45.09
4410;BME280;2218;51.408;7.208;2023-03-24T14:02:19;98460.56;;;20.27;44.94
4410;BME280;2218;51.408;7.208;2023-03-24T14:04:49;98471.00;;;20.29;44.87
4410;BME280;2218;51.408;7.208;2023-03-24T14:07:34;98470.16;;;20.28;44.87
4410;BME280;2218;51.408;7.208;2023-03-24T14:10:36;98477.09;;;20.29;44.77
4410;BME280;2218;51.408;7.208;2023-03-24T14:13:18;98477.09;;;20.29;44.77
4410;BME280;2218;51.408;7.208;2023-03-24T14:15:49;98477.09;;;20.29;44.50
4410;BME280;2218;51.408;7.208;2023-03-24T14:18:41;98464.44;;;20.33;44.40
4410;BME280;2218;51.408;7.208;2023-03-24T14:21:09;98452.06;;;20.33;44.50